Higginsville, Missouri
Current Conditions -  °F | °C
As of 6:15 AM on Monday 26 Jan 2015 (Local Time) from KRCM Reporting Station
Clear Clear  
Wind Chill: 28°   Ceiling: Unl
Heat Index: 28°   Visibility: 10mi
Dew Point: 27°   Wind: 3mph
Humidity: 93%   Direction: 190°S
Pressure: 30.05"   Gusts: NA
Location:  39.07°N, 93.72°W
Report Text: KRCM 261215Z AUTO 19003KT 10SM CLR M02/M03 A3005 RMK AO2
Loading
Personal Weather Stations






























Interactive Weather Map New forecast layout! Learn more

10-Day Weather Forecast

Advertisements
Track Severe Weather on mobile